weather.gov     
National Weather Service

Terminal Aerodrome Forecast
NWS Homepage
This page is being discontinued on March 12, 2014.
The same data is available at this site. Please update your bookmarks.
Thank you, and we apologize for the inconvenience.
Please send an email to SR-SRH.Webmaster@noaa.gov with any concerns.


Current Version
Previous Version:    01  02  03  04  05  06  07  08  09  10  11  12  13  14  15  16  17  18  19  20  21  22  23  24  25  26  27  28  29  30  
   31  32  33  34  35  36  37  38  39  
[Printable]
352
FTUS44 KOHX 260500
TAFCSV
TAF
KCSV 260540Z 2606/2706 00000KT P6SM BKN080 OVC200
      TEMPO 2606/2610 -SHRASN
     FM261100 00000KT P6SM SCT200
     FM261800 23005KT P6SM SCT100 BKN200
     FM262200 20005KT P6SM -RA BKN030 BKN100
     FM270200 26005KT P6SM -RA OVC030=


U.S. Dept. of Commerce
NOAA National Weather Service
1325 East West Highway
Silver Spring, MD 20910
E-mail: w-nws.webmaster@noaa.gov
Page last modified: May 16, 2007
NATIONAL WEATHER SERVICE: for Safety, for Work, for Fun - FOR LIFE